sensor_id;sensor_type;location;lat;lon;timestamp;P1;durP1;ratioP1;P2;durP2;ratioP2
68910;SDS011;55953;51.650;-0.522;2023-11-19T00:00:22;23.90;;;5.40;;
68910;SDS011;55953;51.650;-0.522;2023-11-19T00:03:11;24.30;;;4.30;;
68910;SDS011;55953;51.650;-0.522;2023-11-19T00:05:41;21.50;;;3.40;;
68910;SDS011;55953;51.650;-0.522;2023-11-19T00:08:09;22.90;;;3.80;;
68910;SDS011;55953;51.650;-0.522;2023-11-19T00:10:37;28.30;;;3.90;;
68910;SDS011;55953;51.650;-0.522;2023-11-19T00:13:05;29.20;;;4.20;;
68910;SDS011;55953;51.650;-0.522;2023-11-19T00:15:34;26.20;;;3.50;;
68910;SDS011;55953;51.650;-0.522;2023-11-19T00:18:02;21.10;;;4.60;;
68910;SDS011;55953;51.650;-0.522;2023-11-19T00:20:33;19.60;;;3.60;;
68910;SDS011;55953;51.650;-0.522;2023-11-19T00:23:01;21.60;;;3.60;;
68910;SDS011;55953;51.650;-0.522;2023-11-19T00:25:30;24.10;;;3.80;;
68910;SDS011;55953;51.650;-0.522;2023-11-19T00:27:58;16.60;;;3.20;;
68910;SDS011;55953;51.650;-0.522;2023-11-19T00:30:27;20.80;;;3.50;;
68910;SDS011;55953;51.650;-0.522;2023-11-19T00:32:55;23.40;;;3.80;;
68910;SDS011;55953;51.650;-0.522;2023-11-19T00:35:23;23.50;;;3.90;;
68910;SDS011;55953;51.650;-0.522;2023-11-19T00:37:50;20.30;;;3.80;;
68910;SDS011;55953;51.650;-0.522;2023-11-19T00:40:19;21.00;;;3.50;;
68910;SDS011;55953;51.650;-0.522;2023-11-19T00:42:50;22.90;;;4.40;;
68910;SDS011;55953;51.650;-0.522;2023-11-19T00:45:18;19.80;;;3.10;;
68910;SDS011;55953;51.650;-0.522;2023-11-19T00:47:46;25.10;;;3.50;;
68910;SDS011;55953;51.650;-0.522;2023-11-19T00:50:14;18.20;;;3.30;;
68910;SDS011;55953;51.650;-0.522;2023-11-19T00:52:42;23.80;;;4.20;;
68910;SDS011;55953;51.650;-0.522;2023-11-19T00:55:10;23.60;;;3.70;;
68910;SDS011;55953;51.650;-0.522;2023-11-19T00:57:39;24.00;;;3.90;;
68910;SDS011;55953;51.650;-0.522;2023-11-19T01:00:09;23.20;;;3.50;;
68910;SDS011;55953;51.650;-0.522;2023-11-19T01:02:47;21.70;;;3.50;;
68910;SDS011;55953;51.650;-0.522;2023-11-19T01:07:51;25.00;;;3.60;;
68910;SDS011;55953;51.650;-0.522;2023-11-19T01:10:22;27.60;;;3.90;;
68910;SDS011;55953;51.650;-0.522;2023-11-19T01:12:50;23.40;;;3.60;;
68910;SDS011;55953;51.650;-0.522;2023-11-19T01:15:18;23.60;;;4.20;;
68910;SDS011;55953;51.650;-0.522;2023-11-19T01:17:48;20.90;;;3.20;;
68910;SDS011;55953;51.650;-0.522;2023-11-19T01:22:50;21.40;;;3.60;;
68910;SDS011;55953;51.650;-0.522;2023-11-19T01:25:18;18.90;;;4.00;;
68910;SDS011;55953;51.650;-0.522;2023-11-19T01:27:46;25.10;;;3.60;;
68910;SDS011;55953;51.650;-0.522;2023-11-19T01:30:14;20.20;;;4.30;;
68910;SDS011;55953;51.650;-0.522;2023-11-19T01:32:42;25.20;;;4.30;;
68910;SDS011;55953;51.650;-0.522;2023-11-19T01:35:10;27.10;;;4.80;;
68910;SDS011;55953;51.650;-0.522;2023-11-19T01:37:38;21.70;;;4.50;;
68910;SDS011;55953;51.650;-0.522;2023-11-19T01:40:07;17.10;;;2.80;;
68910;SDS011;55953;51.650;-0.522;2023-11-19T01:42:38;19.60;;;3.10;;
68910;SDS011;55953;51.650;-0.522;2023-11-19T01:45:08;24.40;;;4.20;;
68910;SDS011;55953;51.650;-0.522;2023-11-19T01:47:37;20.00;;;2.90;;
68910;SDS011;55953;51.650;-0.522;2023-11-19T01:50:06;16.90;;;4.30;;
68910;SDS011;55953;51.650;-0.522;2023-11-19T01:52:36;19.60;;;3.30;;
68910;SDS011;55953;51.650;-0.522;2023-11-19T01:55:07;21.70;;;3.30;;
68910;SDS011;55953;51.650;-0.522;2023-11-19T01:57:38;19.90;;;3.20;;
68910;SDS011;55953;51.650;-0.522;2023-11-19T02:00:08;17.60;;;3.40;;
68910;SDS011;55953;51.650;-0.522;2023-11-19T02:02:44;28.10;;;4.30;;
68910;SDS011;55953;51.650;-0.522;2023-11-19T02:05:14;22.50;;;4.80;;
68910;SDS011;55953;51.650;-0.522;2023-11-19T02:07:42;16.20;;;3.20;;
68910;SDS011;55953;51.650;-0.522;2023-11-19T02:10:10;23.60;;;3.70;;
68910;SDS011;55953;51.650;-0.522;2023-11-19T02:12:41;18.50;;;2.70;;
68910;SDS011;55953;51.650;-0.522;2023-11-19T02:15:10;20.80;;;3.40;;
68910;SDS011;55953;51.650;-0.522;2023-11-19T02:17:38;15.10;;;2.70;;
68910;SDS011;55953;51.650;-0.522;2023-11-19T02:20:08;20.50;;;3.10;;
68910;SDS011;55953;51.650;-0.522;2023-11-19T02:22:36;21.70;;;3.40;;
68910;SDS011;55953;51.650;-0.522;2023-11-19T02:25:07;25.70;;;4.30;;
68910;SDS011;55953;51.650;-0.522;2023-11-19T02:27:59;19.30;;;3.50;;
68910;SDS011;55953;51.650;-0.522;2023-11-19T02:30:28;18.70;;;3.00;;
68910;SDS011;55953;51.650;-0.522;2023-11-19T02:32:57;21.60;;;3.00;;
68910;SDS011;55953;51.650;-0.522;2023-11-19T02:35:26;20.40;;;2.80;;
68910;SDS011;55953;51.650;-0.522;2023-11-19T02:37:54;24.00;;;3.30;;
68910;SDS011;55953;51.650;-0.522;2023-11-19T02:40:22;20.00;;;3.00;;
68910;SDS011;55953;51.650;-0.522;2023-11-19T02:42:53;16.70;;;3.20;;
68910;SDS011;55953;51.650;-0.522;2023-11-19T02:45:23;20.30;;;2.90;;
68910;SDS011;55953;51.650;-0.522;2023-11-19T02:47:53;21.10;;;3.20;;
68910;SDS011;55953;51.650;-0.522;2023-11-19T02:50:23;23.60;;;3.60;;
68910;SDS011;55953;51.650;-0.522;2023-11-19T02:52:55;16.50;;;3.30;;
68910;SDS011;55953;51.650;-0.522;2023-11-19T02:55:25;18.70;;;3.30;;
68910;SDS011;55953;51.650;-0.522;2023-11-19T02:57:55;21.70;;;4.20;;
68910;SDS011;55953;51.650;-0.522;2023-11-19T03:00:26;20.20;;;3.10;;
68910;SDS011;55953;51.650;-0.522;2023-11-19T03:03:04;18.50;;;3.00;;
68910;SDS011;55953;51.650;-0.522;2023-11-19T03:05:52;19.40;;;3.20;;
68910;SDS011;55953;51.650;-0.522;2023-11-19T03:08:20;19.50;;;4.00;;
68910;SDS011;55953;51.650;-0.522;2023-11-19T03:10:50;22.70;;;3.70;;
68910;SDS011;55953;51.650;-0.522;2023-11-19T03:13:18;20.80;;;3.10;;
68910;SDS011;55953;51.650;-0.522;2023-11-19T03:15:46;20.80;;;3.60;;
68910;SDS011;55953;51.650;-0.522;2023-11-19T03:18:14;14.30;;;3.10;;
68910;SDS011;55953;51.650;-0.522;2023-11-19T03:20:42;24.20;;;3.60;;
68910;SDS011;55953;51.650;-0.522;2023-11-19T03:23:10;18.40;;;3.20;;
68910;SDS011;55953;51.650;-0.522;2023-11-19T03:25:38;18.50;;;3.20;;
68910;SDS011;55953;51.650;-0.522;2023-11-19T03:28:06;19.10;;;3.60;;
68910;SDS011;55953;51.650;-0.522;2023-11-19T03:30:35;22.90;;;3.30;;
68910;SDS011;55953;51.650;-0.522;2023-11-19T03:33:02;16.50;;;2.90;;
68910;SDS011;55953;51.650;-0.522;2023-11-19T03:35:31;27.80;;;4.00;;
68910;SDS011;55953;51.650;-0.522;2023-11-19T03:38:00;21.60;;;3.10;;
68910;SDS011;55953;51.650;-0.522;2023-11-19T03:40:29;18.40;;;2.60;;
68910;SDS011;55953;51.650;-0.522;2023-11-19T03:42:57;21.60;;;3.10;;
68910;SDS011;55953;51.650;-0.522;2023-11-19T03:45:28;19.60;;;3.20;;
68910;SDS011;55953;51.650;-0.522;2023-11-19T03:47:56;27.60;;;3.00;;
68910;SDS011;55953;51.650;-0.522;2023-11-19T03:50:24;17.20;;;3.00;;
68910;SDS011;55953;51.650;-0.522;2023-11-19T03:52:52;25.40;;;3.90;;
68910;SDS011;55953;51.650;-0.522;2023-11-19T03:55:20;25.80;;;3.90;;
68910;SDS011;55953;51.650;-0.522;2023-11-19T03:57:48;23.20;;;3.60;;
68910;SDS011;55953;51.650;-0.522;2023-11-19T04:00:16;20.70;;;2.80;;
68910;SDS011;55953;51.650;-0.522;2023-11-19T04:02:45;22.90;;;3.20;;
68910;SDS011;55953;51.650;-0.522;2023-11-19T04:05:14;17.00;;;3.20;;
68910;SDS011;55953;51.650;-0.522;2023-11-19T04:07:42;17.60;;;2.90;;
68910;SDS011;55953;51.650;-0.522;2023-11-19T04:10:10;18.70;;;3.10;;
68910;SDS011;55953;51.650;-0.522;2023-11-19T04:12:38;15.90;;;3.50;;
68910;SDS011;55953;51.650;-0.522;2023-11-19T04:15:06;24.20;;;3.60;;
68910;SDS011;55953;51.650;-0.522;2023-11-19T04:17:34;19.00;;;2.80;;
68910;SDS011;55953;51.650;-0.522;2023-11-19T04:20:03;20.50;;;3.30;;
68910;SDS011;55953;51.650;-0.522;2023-11-19T04:22:31;22.80;;;3.30;;
68910;SDS011;55953;51.650;-0.522;2023-11-19T04:24:59;20.00;;;3.10;;
68910;SDS011;55953;51.650;-0.522;2023-11-19T04:27:27;23.70;;;3.40;;
68910;SDS011;55953;51.650;-0.522;2023-11-19T04:29:56;20.10;;;3.20;;
68910;SDS011;55953;51.650;-0.522;2023-11-19T04:32:24;17.10;;;2.70;;
68910;SDS011;55953;51.650;-0.522;2023-11-19T04:34:54;19.80;;;3.70;;
68910;SDS011;55953;51.650;-0.522;2023-11-19T04:37:22;18.50;;;3.00;;
68910;SDS011;55953;51.650;-0.522;2023-11-19T04:39:49;20.40;;;4.20;;
68910;SDS011;55953;51.650;-0.522;2023-11-19T04:42:17;15.30;;;2.60;;
68910;SDS011;55953;51.650;-0.522;2023-11-19T04:44:45;20.80;;;3.60;;
68910;SDS011;55953;51.650;-0.522;2023-11-19T04:47:13;18.20;;;2.70;;
68910;SDS011;55953;51.650;-0.522;2023-11-19T04:49:42;18.60;;;2.90;;
68910;SDS011;55953;51.650;-0.522;2023-11-19T04:52:10;18.00;;;3.30;;
68910;SDS011;55953;51.650;-0.522;2023-11-19T04:54:43;21.00;;;4.40;;
68910;SDS011;55953;51.650;-0.522;2023-11-19T04:57:11;20.00;;;3.20;;
68910;SDS011;55953;51.650;-0.522;2023-11-19T04:59:40;18.40;;;2.80;;
68910;SDS011;55953;51.650;-0.522;2023-11-19T05:02:08;18.50;;;3.30;;
68910;SDS011;55953;51.650;-0.522;2023-11-19T05:04:37;20.50;;;2.80;;
68910;SDS011;55953;51.650;-0.522;2023-11-19T05:07:08;15.70;;;3.10;;
68910;SDS011;55953;51.650;-0.522;2023-11-19T05:09:35;23.60;;;3.30;;
68910;SDS011;55953;51.650;-0.522;2023-11-19T05:12:03;22.30;;;3.60;;
68910;SDS011;55953;51.650;-0.522;2023-11-19T05:14:32;23.30;;;3.50;;
68910;SDS011;55953;51.650;-0.522;2023-11-19T05:16:59;19.20;;;3.90;;
68910;SDS011;55953;51.650;-0.522;2023-11-19T05:19:27;18.90;;;2.60;;
68910;SDS011;55953;51.650;-0.522;2023-11-19T05:21:56;14.80;;;2.50;;
68910;SDS011;55953;51.650;-0.522;2023-11-19T05:24:24;18.80;;;3.20;;
68910;SDS011;55953;51.650;-0.522;2023-11-19T05:26:52;21.10;;;3.70;;
68910;SDS011;55953;51.650;-0.522;2023-11-19T05:29:20;18.70;;;2.80;;
68910;SDS011;55953;51.650;-0.522;2023-11-19T05:31:47;16.00;;;2.50;;
68910;SDS011;55953;51.650;-0.522;2023-11-19T05:34:15;21.00;;;3.30;;
68910;SDS011;55953;51.650;-0.522;2023-11-19T05:36:43;23.30;;;2.90;;
68910;SDS011;55953;51.650;-0.522;2023-11-19T05:39:11;19.30;;;3.00;;
68910;SDS011;55953;51.650;-0.522;2023-11-19T05:41:39;23.20;;;3.40;;
68910;SDS011;55953;51.650;-0.522;2023-11-19T05:44:07;15.80;;;4.00;;
68910;SDS011;55953;51.650;-0.522;2023-11-19T05:46:34;21.10;;;3.40;;
68910;SDS011;55953;51.650;-0.522;2023-11-19T05:49:08;19.20;;;3.30;;
68910;SDS011;55953;51.650;-0.522;2023-11-19T05:51:40;16.10;;;3.30;;
68910;SDS011;55953;51.650;-0.522;2023-11-19T05:54:09;16.90;;;2.70;;
68910;SDS011;55953;51.650;-0.522;2023-11-19T05:56:38;22.80;;;3.20;;
68910;SDS011;55953;51.650;-0.522;2023-11-19T05:59:06;17.60;;;3.10;;
68910;SDS011;55953;51.650;-0.522;2023-11-19T06:01:43;21.60;;;2.80;;
68910;SDS011;55953;51.650;-0.522;2023-11-19T06:04:11;14.20;;;2.50;;
68910;SDS011;55953;51.650;-0.522;2023-11-19T06:06:40;17.20;;;3.00;;
68910;SDS011;55953;51.650;-0.522;2023-11-19T06:09:08;14.80;;;2.40;;
68910;SDS011;55953;51.650;-0.522;2023-11-19T06:11:40;18.10;;;3.10;;
68910;SDS011;55953;51.650;-0.522;2023-11-19T06:14:08;11.90;;;2.10;;
68910;SDS011;55953;51.650;-0.522;2023-11-19T06:16:37;14.30;;;2.50;;
68910;SDS011;55953;51.650;-0.522;2023-11-19T06:19:07;16.30;;;2.60;;
68910;SDS011;55953;51.650;-0.522;2023-11-19T06:21:36;12.30;;;1.70;;
68910;SDS011;55953;51.650;-0.522;2023-11-19T06:24:04;12.50;;;1.80;;
68910;SDS011;55953;51.650;-0.522;2023-11-19T06:26:32;11.10;;;2.00;;
68910;SDS011;55953;51.650;-0.522;2023-11-19T06:29:00;14.90;;;2.70;;
68910;SDS011;55953;51.650;-0.522;2023-11-19T06:31:28;13.90;;;2.50;;
68910;SDS011;55953;51.650;-0.522;2023-11-19T06:33:56;15.60;;;2.40;;
68910;SDS011;55953;51.650;-0.522;2023-11-19T06:36:24;16.20;;;2.50;;
68910;SDS011;55953;51.650;-0.522;2023-11-19T06:38:52;15.00;;;2.40;;
68910;SDS011;55953;51.650;-0.522;2023-11-19T06:41:20;13.40;;;2.20;;
68910;SDS011;55953;51.650;-0.522;2023-11-19T06:43:48;15.30;;;2.30;;
68910;SDS011;55953;51.650;-0.522;2023-11-19T06:46:17;12.90;;;2.80;;
68910;SDS011;55953;51.650;-0.522;2023-11-19T06:48:45;16.80;;;2.90;;
68910;SDS011;55953;51.650;-0.522;2023-11-19T06:51:13;15.40;;;2.20;;
68910;SDS011;55953;51.650;-0.522;2023-11-19T06:53:42;16.20;;;2.10;;
68910;SDS011;55953;51.650;-0.522;2023-11-19T06:56:22;15.70;;;2.40;;
68910;SDS011;55953;51.650;-0.522;2023-11-19T06:58:51;15.00;;;2.50;;
68910;SDS011;55953;51.650;-0.522;2023-11-19T07:01:19;16.00;;;2.40;;
68910;SDS011;55953;51.650;-0.522;2023-11-19T07:03:48;12.50;;;2.10;;
68910;SDS011;55953;51.650;-0.522;2023-11-19T07:06:17;11.70;;;2.20;;
68910;SDS011;55953;51.650;-0.522;2023-11-19T07:08:45;13.80;;;3.00;;
68910;SDS011;55953;51.650;-0.522;2023-11-19T07:11:14;15.50;;;2.80;;
68910;SDS011;55953;51.650;-0.522;2023-11-19T07:13:43;14.80;;;2.10;;
68910;SDS011;55953;51.650;-0.522;2023-11-19T07:16:14;19.70;;;3.40;;
68910;SDS011;55953;51.650;-0.522;2023-11-19T07:18:42;19.70;;;2.80;;
68910;SDS011;55953;51.650;-0.522;2023-11-19T07:21:11;16.30;;;2.30;;
68910;SDS011;55953;51.650;-0.522;2023-11-19T07:23:39;15.40;;;2.30;;
68910;SDS011;55953;51.650;-0.522;2023-11-19T07:26:08;13.70;;;2.20;;
68910;SDS011;55953;51.650;-0.522;2023-11-19T07:28:36;14.80;;;2.20;;
68910;SDS011;55953;51.650;-0.522;2023-11-19T07:31:04;13.40;;;2.80;;
68910;SDS011;55953;51.650;-0.522;2023-11-19T07:33:32;16.20;;;2.40;;
68910;SDS011;55953;51.650;-0.522;2023-11-19T07:36:00;15.60;;;2.00;;
68910;SDS011;55953;51.650;-0.522;2023-11-19T07:38:28;14.80;;;2.00;;
68910;SDS011;55953;51.650;-0.522;2023-11-19T07:40:56;13.90;;;2.30;;
68910;SDS011;55953;51.650;-0.522;2023-11-19T07:43:24;9.50;;;2.00;;
68910;SDS011;55953;51.650;-0.522;2023-11-19T07:45:52;16.60;;;2.60;;
68910;SDS011;55953;51.650;-0.522;2023-11-19T07:48:20;15.00;;;2.40;;
68910;SDS011;55953;51.650;-0.522;2023-11-19T07:50:52;11.20;;;2.00;;
68910;SDS011;55953;51.650;-0.522;2023-11-19T07:53:20;13.30;;;2.20;;
68910;SDS011;55953;51.650;-0.522;2023-11-19T07:55:48;11.20;;;2.00;;
68910;SDS011;55953;51.650;-0.522;2023-11-19T07:58:16;13.90;;;1.80;;
68910;SDS011;55953;51.650;-0.522;2023-11-19T08:00:44;11.00;;;1.80;;
68910;SDS011;55953;51.650;-0.522;2023-11-19T08:03:11;12.10;;;2.00;;
68910;SDS011;55953;51.650;-0.522;2023-11-19T08:05:40;14.00;;;2.50;;
68910;SDS011;55953;51.650;-0.522;2023-11-19T08:08:08;12.10;;;2.30;;
68910;SDS011;55953;51.650;-0.522;2023-11-19T08:10:36;13.60;;;2.40;;
68910;SDS011;55953;51.650;-0.522;2023-11-19T08:13:03;12.90;;;2.20;;
68910;SDS011;55953;51.650;-0.522;2023-11-19T08:15:31;11.80;;;1.90;;
68910;SDS011;55953;51.650;-0.522;2023-11-19T08:17:59;12.50;;;2.00;;
68910;SDS011;55953;51.650;-0.522;2023-11-19T08:20:27;8.20;;;1.60;;
68910;SDS011;55953;51.650;-0.522;2023-11-19T08:22:55;10.40;;;1.70;;
68910;SDS011;55953;51.650;-0.522;2023-11-19T08:25:23;11.30;;;1.80;;
68910;SDS011;55953;51.650;-0.522;2023-11-19T08:27:51;10.50;;;1.90;;
68910;SDS011;55953;51.650;-0.522;2023-11-19T08:30:20;11.90;;;1.90;;
68910;SDS011;55953;51.650;-0.522;2023-11-19T08:32:47;16.20;;;2.70;;
68910;SDS011;55953;51.650;-0.522;2023-11-19T08:35:15;14.20;;;2.00;;
68910;SDS011;55953;51.650;-0.522;2023-11-19T08:37:43;13.40;;;2.10;;
68910;SDS011;55953;51.650;-0.522;2023-11-19T08:40:13;8.20;;;1.30;;
68910;SDS011;55953;51.650;-0.522;2023-11-19T08:42:44;11.70;;;1.70;;
68910;SDS011;55953;51.650;-0.522;2023-11-19T08:45:13;13.40;;;2.40;;
68910;SDS011;55953;51.650;-0.522;2023-11-19T08:47:41;10.70;;;2.20;;
68910;SDS011;55953;51.650;-0.522;2023-11-19T08:50:09;11.00;;;1.70;;
68910;SDS011;55953;51.650;-0.522;2023-11-19T08:52:37;8.50;;;1.60;;
68910;SDS011;55953;51.650;-0.522;2023-11-19T08:55:05;9.50;;;1.90;;
68910;SDS011;55953;51.650;-0.522;2023-11-19T08:57:33;11.20;;;2.00;;
68910;SDS011;55953;51.650;-0.522;2023-11-19T09:00:02;10.60;;;2.10;;
68910;SDS011;55953;51.650;-0.522;2023-11-19T09:02:35;11.10;;;2.30;;
68910;SDS011;55953;51.650;-0.522;2023-11-19T09:05:05;7.60;;;1.70;;
68910;SDS011;55953;51.650;-0.522;2023-11-19T09:07:36;9.80;;;2.10;;
68910;SDS011;55953;51.650;-0.522;2023-11-19T09:10:05;11.00;;;1.80;;
68910;SDS011;55953;51.650;-0.522;2023-11-19T09:12:33;11.80;;;1.50;;
68910;SDS011;55953;51.650;-0.522;2023-11-19T09:15:01;8.50;;;1.70;;
68910;SDS011;55953;51.650;-0.522;2023-11-19T09:17:29;10.70;;;2.30;;
68910;SDS011;55953;51.650;-0.522;2023-11-19T09:19:57;10.30;;;1.80;;
68910;SDS011;55953;51.650;-0.522;2023-11-19T09:22:25;7.80;;;1.60;;
68910;SDS011;55953;51.650;-0.522;2023-11-19T09:24:53;10.80;;;1.50;;
68910;SDS011;55953;51.650;-0.522;2023-11-19T09:27:21;13.40;;;2.30;;
68910;SDS011;55953;51.650;-0.522;2023-11-19T09:29:49;11.00;;;1.70;;
68910;SDS011;55953;51.650;-0.522;2023-11-19T09:32:22;9.60;;;2.00;;
68910;SDS011;55953;51.650;-0.522;2023-11-19T09:34:50;10.70;;;2.10;;
68910;SDS011;55953;51.650;-0.522;2023-11-19T09:37:18;12.00;;;2.30;;
68910;SDS011;55953;51.650;-0.522;2023-11-19T09:39:49;10.70;;;2.20;;
68910;SDS011;55953;51.650;-0.522;2023-11-19T09:42:17;9.30;;;1.90;;
68910;SDS011;55953;51.650;-0.522;2023-11-19T09:44:47;13.30;;;2.20;;
68910;SDS011;55953;51.650;-0.522;2023-11-19T09:47:17;13.20;;;2.30;;
68910;SDS011;55953;51.650;-0.522;2023-11-19T09:49:47;12.60;;;2.30;;
68910;SDS011;55953;51.650;-0.522;2023-11-19T09:52:16;12.60;;;2.50;;
68910;SDS011;55953;51.650;-0.522;2023-11-19T09:54:44;11.20;;;2.00;;
68910;SDS011;55953;51.650;-0.522;2023-11-19T09:57:13;6.60;;;1.70;;
68910;SDS011;55953;51.650;-0.522;2023-11-19T09:59:45;9.40;;;1.50;;
68910;SDS011;55953;51.650;-0.522;2023-11-19T10:02:15;12.30;;;1.80;;
68910;SDS011;55953;51.650;-0.522;2023-11-19T10:04:46;9.40;;;1.90;;
68910;SDS011;55953;51.650;-0.522;2023-11-19T10:07:15;8.00;;;1.40;;
68910;SDS011;55953;51.650;-0.522;2023-11-19T10:09:43;9.50;;;1.90;;
68910;SDS011;55953;51.650;-0.522;2023-11-19T10:12:11;6.10;;;1.60;;
68910;SDS011;55953;51.650;-0.522;2023-11-19T10:14:39;13.30;;;1.80;;
68910;SDS011;55953;51.650;-0.522;2023-11-19T10:17:09;9.30;;;1.50;;
68910;SDS011;55953;51.650;-0.522;2023-11-19T10:19:39;12.50;;;1.70;;
68910;SDS011;55953;51.650;-0.522;2023-11-19T10:22:09;8.80;;;1.60;;
68910;SDS011;55953;51.650;-0.522;2023-11-19T10:24:38;10.60;;;2.00;;
68910;SDS011;55953;51.650;-0.522;2023-11-19T10:27:15;6.90;;;1.30;;
68910;SDS011;55953;51.650;-0.522;2023-11-19T10:29:47;8.80;;;1.70;;
68910;SDS011;55953;51.650;-0.522;2023-11-19T10:32:15;10.60;;;2.40;;
68910;SDS011;55953;51.650;-0.522;2023-11-19T10:35:06;11.60;;;2.50;;
68910;SDS011;55953;51.650;-0.522;2023-11-19T10:37:34;13.20;;;2.20;;
68910;SDS011;55953;51.650;-0.522;2023-11-19T10:40:05;9.50;;;1.40;;
68910;SDS011;55953;51.650;-0.522;2023-11-19T10:42:33;9.80;;;1.80;;
68910;SDS011;55953;51.650;-0.522;2023-11-19T10:45:01;9.20;;;1.80;;
68910;SDS011;55953;51.650;-0.522;2023-11-19T10:47:30;7.80;;;1.90;;
68910;SDS011;55953;51.650;-0.522;2023-11-19T10:50:03;8.80;;;1.50;;
68910;SDS011;55953;51.650;-0.522;2023-11-19T10:52:31;11.90;;;1.80;;
68910;SDS011;55953;51.650;-0.522;2023-11-19T10:55:02;10.30;;;1.60;;
68910;SDS011;55953;51.650;-0.522;2023-11-19T10:57:36;9.90;;;2.20;;
68910;SDS011;55953;51.650;-0.522;2023-11-19T11:00:06;11.60;;;2.00;;
68910;SDS011;55953;51.650;-0.522;2023-11-19T11:02:41;10.10;;;1.50;;
68910;SDS011;55953;51.650;-0.522;2023-11-19T11:05:14;10.00;;;1.90;;
68910;SDS011;55953;51.650;-0.522;2023-11-19T11:07:43;10.50;;;1.80;;
68910;SDS011;55953;51.650;-0.522;2023-11-19T11:10:13;6.10;;;1.50;;
68910;SDS011;55953;51.650;-0.522;2023-11-19T11:12:43;7.90;;;1.40;;
68910;SDS011;55953;51.650;-0.522;2023-11-19T11:15:14;8.90;;;1.30;;
68910;SDS011;55953;51.650;-0.522;2023-11-19T11:17:44;7.30;;;1.50;;
68910;SDS011;55953;51.650;-0.522;2023-11-19T11:20:13;10.30;;;1.70;;
68910;SDS011;55953;51.650;-0.522;2023-11-19T11:29:03;8.90;;;1.30;;
68910;SDS011;55953;51.650;-0.522;2023-11-19T11:38:06;9.00;;;1.80;;
68910;SDS011;55953;51.650;-0.522;2023-11-19T11:40:35;8.50;;;2.40;;
68910;SDS011;55953;51.650;-0.522;2023-11-19T11:43:03;10.30;;;1.60;;
68910;SDS011;55953;51.650;-0.522;2023-11-19T11:45:39;5.90;;;1.60;;
68910;SDS011;55953;51.650;-0.522;2023-11-19T11:48:19;8.80;;;1.50;;
68910;SDS011;55953;51.650;-0.522;2023-11-19T11:50:53;8.90;;;1.40;;
68910;SDS011;55953;51.650;-0.522;2023-11-19T11:53:25;5.70;;;1.30;;
68910;SDS011;55953;51.650;-0.522;2023-11-19T11:55:54;9.70;;;1.50;;
68910;SDS011;55953;51.650;-0.522;2023-11-19T11:58:29;6.70;;;1.40;;
68910;SDS011;55953;51.650;-0.522;2023-11-19T12:01:01;5.40;;;1.30;;
68910;SDS011;55953;51.650;-0.522;2023-11-19T12:03:31;5.50;;;1.00;;
68910;SDS011;55953;51.650;-0.522;2023-11-19T12:06:00;5.90;;;1.40;;
68910;SDS011;55953;51.650;-0.522;2023-11-19T12:08:29;6.90;;;1.50;;
68910;SDS011;55953;51.650;-0.522;2023-11-19T12:10:58;7.20;;;1.70;;
68910;SDS011;55953;51.650;-0.522;2023-11-19T12:13:53;6.60;;;1.50;;
68910;SDS011;55953;51.650;-0.522;2023-11-19T12:16:23;5.00;;;1.10;;
68910;SDS011;55953;51.650;-0.522;2023-11-19T12:18:52;7.70;;;1.30;;
68910;SDS011;55953;51.650;-0.522;2023-11-19T12:21:27;5.40;;;1.30;;
68910;SDS011;55953;51.650;-0.522;2023-11-19T12:23:58;6.40;;;1.00;;
68910;SDS011;55953;51.650;-0.522;2023-11-19T12:26:33;8.10;;;1.20;;
68910;SDS011;55953;51.650;-0.522;2023-11-19T12:29:02;6.00;;;1.30;;
68910;SDS011;55953;51.650;-0.522;2023-11-19T12:31:36;6.70;;;1.00;;
68910;SDS011;55953;51.650;-0.522;2023-11-19T12:34:05;5.70;;;1.10;;
68910;SDS011;55953;51.650;-0.522;2023-11-19T12:36:34;6.30;;;1.30;;
68910;SDS011;55953;51.650;-0.522;2023-11-19T12:39:02;9.00;;;1.60;;
68910;SDS011;55953;51.650;-0.522;2023-11-19T12:41:31;5.00;;;1.20;;
68910;SDS011;55953;51.650;-0.522;2023-11-19T12:44:11;8.90;;;1.20;;
68910;SDS011;55953;51.650;-0.522;2023-11-19T12:46:40;5.10;;;1.30;;
68910;SDS011;55953;51.650;-0.522;2023-11-19T12:49:11;4.30;;;1.30;;
68910;SDS011;55953;51.650;-0.522;2023-11-19T12:51:39;6.40;;;1.40;;
68910;SDS011;55953;51.650;-0.522;2023-11-19T12:54:07;5.60;;;1.30;;
68910;SDS011;55953;51.650;-0.522;2023-11-19T12:56:35;6.00;;;1.20;;
68910;SDS011;55953;51.650;-0.522;2023-11-19T12:59:11;7.10;;;1.40;;
68910;SDS011;55953;51.650;-0.522;2023-11-19T13:01:40;6.00;;;1.20;;
68910;SDS011;55953;51.650;-0.522;2023-11-19T13:04:17;3.70;;;1.10;;
68910;SDS011;55953;51.650;-0.522;2023-11-19T13:06:46;8.10;;;1.30;;
68910;SDS011;55953;51.650;-0.522;2023-11-19T13:09:32;3.50;;;0.90;;
68910;SDS011;55953;51.650;-0.522;2023-11-19T13:12:12;4.50;;;0.90;;
68910;SDS011;55953;51.650;-0.522;2023-11-19T13:14:42;3.60;;;1.00;;
68910;SDS011;55953;51.650;-0.522;2023-11-19T13:17:15;5.50;;;1.30;;
68910;SDS011;55953;51.650;-0.522;2023-11-19T13:19:47;5.30;;;1.10;;
68910;SDS011;55953;51.650;-0.522;2023-11-19T13:22:15;4.30;;;1.20;;
68910;SDS011;55953;51.650;-0.522;2023-11-19T13:24:43;4.70;;;1.40;;
68910;SDS011;55953;51.650;-0.522;2023-11-19T13:27:11;5.80;;;1.30;;
68910;SDS011;55953;51.650;-0.522;2023-11-19T13:29:40;5.30;;;1.00;;
68910;SDS011;55953;51.650;-0.522;2023-11-19T13:32:08;7.50;;;1.10;;
68910;SDS011;55953;51.650;-0.522;2023-11-19T13:34:36;3.60;;;1.00;;
68910;SDS011;55953;51.650;-0.522;2023-11-19T13:37:04;3.30;;;0.90;;
68910;SDS011;55953;51.650;-0.522;2023-11-19T13:39:32;3.30;;;1.30;;
68910;SDS011;55953;51.650;-0.522;2023-11-19T13:42:00;4.10;;;1.50;;
68910;SDS011;55953;51.650;-0.522;2023-11-19T13:44:31;2.30;;;0.90;;
68910;SDS011;55953;51.650;-0.522;2023-11-19T13:46:59;3.40;;;0.90;;
68910;SDS011;55953;51.650;-0.522;2023-11-19T13:49:27;3.40;;;1.00;;
68910;SDS011;55953;51.650;-0.522;2023-11-19T13:51:55;3.30;;;0.80;;
68910;SDS011;55953;51.650;-0.522;2023-11-19T13:54:23;6.60;;;1.00;;
68910;SDS011;55953;51.650;-0.522;2023-11-19T13:56:55;4.60;;;1.20;;
68910;SDS011;55953;51.650;-0.522;2023-11-19T13:59:25;3.40;;;0.80;;
68910;SDS011;55953;51.650;-0.522;2023-11-19T14:01:52;4.40;;;1.10;;
68910;SDS011;55953;51.650;-0.522;2023-11-19T14:04:20;3.60;;;1.00;;
68910;SDS011;55953;51.650;-0.522;2023-11-19T14:06:48;2.40;;;0.60;;
68910;SDS011;55953;51.650;-0.522;2023-11-19T14:09:17;2.30;;;0.90;;
68910;SDS011;55953;51.650;-0.522;2023-11-19T14:11:45;1.80;;;0.60;;
68910;SDS011;55953;51.650;-0.522;2023-11-19T14:14:12;3.00;;;0.90;;
68910;SDS011;55953;51.650;-0.522;2023-11-19T14:16:41;3.80;;;0.80;;
68910;SDS011;55953;51.650;-0.522;2023-11-19T14:19:09;2.50;;;0.70;;
68910;SDS011;55953;51.650;-0.522;2023-11-19T14:21:37;3.30;;;0.70;;
68910;SDS011;55953;51.650;-0.522;2023-11-19T14:24:05;3.40;;;0.60;;
68910;SDS011;55953;51.650;-0.522;2023-11-19T14:26:33;3.50;;;1.10;;
68910;SDS011;55953;51.650;-0.522;2023-11-19T14:29:00;3.00;;;0.80;;
68910;SDS011;55953;51.650;-0.522;2023-11-19T14:31:28;2.50;;;0.60;;
68910;SDS011;55953;51.650;-0.522;2023-11-19T14:33:57;3.30;;;0.80;;
68910;SDS011;55953;51.650;-0.522;2023-11-19T14:36:26;1.60;;;0.90;;
68910;SDS011;55953;51.650;-0.522;2023-11-19T14:38:54;2.30;;;0.60;;
68910;SDS011;55953;51.650;-0.522;2023-11-19T14:41:22;0.70;;;0.50;;
68910;SDS011;55953;51.650;-0.522;2023-11-19T14:43:50;1.20;;;0.50;;
68910;SDS011;55953;51.650;-0.522;2023-11-19T14:46:18;1.80;;;0.60;;
68910;SDS011;55953;51.650;-0.522;2023-11-19T14:48:46;2.00;;;0.60;;
68910;SDS011;55953;51.650;-0.522;2023-11-19T14:51:14;1.70;;;0.50;;
68910;SDS011;55953;51.650;-0.522;2023-11-19T14:53:41;1.60;;;0.50;;
68910;SDS011;55953;51.650;-0.522;2023-11-19T14:56:10;2.70;;;0.80;;